createdAt,value
2018-09-15T00:01:50.974Z,95853.45
2018-09-15T00:04:19.519Z,95852.63
2018-09-15T00:06:48.044Z,95852.88
2018-09-15T00:09:16.592Z,95851.71
2018-09-15T00:11:45.133Z,95848.86
2018-09-15T00:14:13.685Z,95848.28
2018-09-15T00:16:43.160Z,95848.15
2018-09-15T00:19:11.696Z,95844.30
2018-09-15T00:21:40.239Z,95836.66
2018-09-15T00:24:08.773Z,95827.80
2018-09-15T00:26:37.327Z,95831.09
2018-09-15T00:29:05.850Z,95830.34
2018-09-15T00:31:34.388Z,95832.69
2018-09-15T00:34:02.931Z,95831.30
2018-09-15T00:36:31.498Z,95833.95
2018-09-15T00:39:00.091Z,95827.69
2018-09-15T00:41:28.603Z,95828.11
2018-09-15T00:43:58.136Z,95822.56
2018-09-15T00:46:26.694Z,95824.23
2018-09-15T00:48:56.127Z,95825.58
2018-09-15T00:51:24.672Z,95821.77
2018-09-15T00:53:54.124Z,95833.77
2018-09-15T00:56:23.823Z,95829.88
2018-09-15T00:58:52.376Z,95834.41
2018-09-15T01:01:21.854Z,95842.33
2018-09-15T01:03:50.384Z,95837.15
2018-09-15T01:06:18.916Z,95831.80
2018-09-15T01:08:47.451Z,95831.20
2018-09-15T01:11:17.000Z,95838.23
2018-09-15T01:13:45.522Z,95842.54
2018-09-15T01:16:14.082Z,95841.66
2018-09-15T01:18:42.627Z,95845.30
2018-09-15T01:21:14.938Z,95842.72
2018-09-15T01:23:43.474Z,95841.96
2018-09-15T01:26:12.002Z,95836.34
2018-09-15T01:28:40.734Z,95843.60
2018-09-15T01:31:09.271Z,95847.41
2018-09-15T01:33:37.835Z,95848.89
2018-09-15T01:36:12.180Z,95851.61
2018-09-15T01:38:41.696Z,95856.86
2018-09-15T01:41:10.212Z,95863.05
2018-09-15T01:43:38.776Z,95866.52
2018-09-15T01:46:07.295Z,95862.00
2018-09-15T01:48:41.178Z,95863.18
2018-09-15T01:51:10.679Z,95861.56
2018-09-15T01:53:39.201Z,95860.03
2018-09-15T01:56:07.767Z,95859.34
2018-09-15T01:58:36.299Z,95853.88
2018-09-15T02:01:04.838Z,95853.98
2018-09-15T02:03:35.346Z,95856.36
2018-09-15T02:06:03.883Z,95854.56
2018-09-15T02:08:32.440Z,95860.86
2018-09-15T02:14:09.254Z,95866.05
2018-09-15T02:16:39.247Z,95862.61
2018-09-15T02:19:10.283Z,95862.74
2018-09-15T02:21:39.343Z,95858.09
2018-09-15T02:24:08.415Z,95860.06
2018-09-15T02:26:38.485Z,95863.59
2018-09-15T02:29:08.612Z,95862.47
2018-09-15T02:31:38.526Z,95861.64
2018-09-15T02:36:43.308Z,95862.75
2018-09-15T02:39:13.303Z,95864.08
2018-09-15T02:41:42.525Z,95868.02
2018-09-15T02:44:11.610Z,95871.11
2018-09-15T02:46:40.676Z,95870.02
2018-09-15T02:49:09.744Z,95881.00
2018-09-15T02:51:39.740Z,95883.00
2018-09-15T02:54:08.860Z,95880.79
2018-09-15T02:56:37.933Z,95876.11
2018-09-15T03:01:42.698Z,95880.77
2018-09-15T03:04:12.793Z,95883.20
2018-09-15T03:09:17.964Z,95880.19
2018-09-15T03:11:47.001Z,95883.83
2018-09-15T03:14:16.068Z,95892.44
2018-09-15T03:16:45.158Z,95891.44
2018-09-15T03:19:14.237Z,95893.23
2018-09-15T03:24:19.029Z,95900.87
2018-09-15T03:29:23.881Z,95889.47
2018-09-15T03:31:52.988Z,95884.25
2018-09-15T03:34:23.006Z,95891.81
2018-09-15T03:39:28.911Z,95894.11
2018-09-15T03:41:59.039Z,95896.16
2018-09-15T03:47:13.128Z,95895.45
2018-09-15T03:49:42.192Z,95898.52
2018-09-15T03:52:11.261Z,95899.86
2018-09-15T03:54:40.632Z,95900.42
2018-09-15T03:57:09.761Z,95903.08
2018-09-15T03:59:38.817Z,95903.18
2018-09-15T04:04:43.624Z,95906.52
2018-09-15T04:07:12.694Z,95910.06
2018-09-15T04:09:41.760Z,95912.91
2018-09-15T04:12:11.826Z,95908.95
2018-09-15T04:14:40.899Z,95913.09
2018-09-15T04:17:10.098Z,95912.84
2018-09-15T04:27:26.648Z,95925.78
2018-09-15T04:29:55.733Z,95926.62
2018-09-15T04:32:24.870Z,95926.02
2018-09-15T04:34:55.922Z,95931.94
2018-09-15T04:37:24.996Z,95940.88
2018-09-15T04:42:29.783Z,95951.25
2018-09-15T04:44:58.878Z,95955.58
2018-09-15T04:47:27.966Z,95955.67
2018-09-15T04:49:57.045Z,95956.13
2018-09-15T04:55:01.837Z,95961.90
2018-09-15T05:00:10.041Z,95974.42
2018-09-15T05:02:41.089Z,95984.23
2018-09-15T05:05:10.161Z,95988.22
2018-09-15T05:07:39.232Z,95987.55
2018-09-15T05:10:10.217Z,95993.67
2018-09-15T05:12:40.288Z,95998.06
2018-09-15T05:15:10.262Z,96003.45
2018-09-15T05:17:41.312Z,96008.86
2018-09-15T05:20:10.386Z,96007.06
2018-09-15T05:22:39.450Z,96007.05
2018-09-15T05:25:08.503Z,96003.14
2018-09-15T05:27:37.573Z,96000.45
2018-09-15T05:30:06.642Z,96007.33
2018-09-15T05:32:35.716Z,96010.23
2018-09-15T05:35:04.768Z,96016.05
2018-09-15T05:37:33.851Z,96020.97
2018-09-15T05:40:02.995Z,96027.55
2018-09-15T05:42:32.007Z,96035.13
2018-09-15T05:45:01.083Z,96043.77
2018-09-15T05:47:30.143Z,96043.47
2018-09-15T05:50:00.117Z,96041.22
2018-09-15T05:52:29.324Z,96038.84
2018-09-15T05:55:00.361Z,96037.61
2018-09-15T05:57:32.934Z,96039.13
2018-09-15T06:00:06.540Z,96043.88
2018-09-15T06:02:37.502Z,96042.22
2018-09-15T06:10:22.029Z,96054.34
2018-09-15T06:12:51.096Z,96056.14
2018-09-15T06:15:30.078Z,96055.61
2018-09-15T06:17:59.147Z,96057.66
2018-09-15T06:20:28.224Z,96060.14
2018-09-15T06:25:33.073Z,96067.37
2018-09-15T06:28:19.032Z,96075.74
2018-09-15T06:30:48.330Z,96077.00
2018-09-15T06:33:20.931Z,96072.64
2018-09-15T06:35:50.003Z,96065.81
2018-09-15T06:38:19.054Z,96063.13
2018-09-15T06:40:48.132Z,96059.78
2018-09-15T06:43:17.209Z,96062.63
2018-09-15T06:48:21.984Z,96066.48
2018-09-15T06:50:52.089Z,96067.70
2018-09-15T06:53:21.163Z,96069.69
2018-09-15T06:55:50.226Z,96071.50
2018-09-15T07:00:55.126Z,96076.64
2018-09-15T07:03:31.934Z,96081.98
2018-09-15T07:06:04.591Z,96091.87
2018-09-15T07:08:33.660Z,96092.29
2018-09-15T07:11:03.444Z,96103.52
2018-09-15T07:13:33.544Z,96098.37
2018-09-15T07:16:06.228Z,96094.27
2018-09-15T07:18:37.244Z,96100.34
2018-09-15T07:23:42.090Z,96110.67
2018-09-15T07:26:11.337Z,96117.98
2018-09-15T07:28:40.683Z,96119.09
2018-09-15T07:31:09.789Z,96122.64
2018-09-15T07:33:42.884Z,96128.05
2018-09-15T07:36:12.916Z,96129.65
2018-09-15T07:38:48.251Z,96130.91
2018-09-15T07:41:17.302Z,96138.03
2018-09-15T07:43:46.374Z,96138.22
2018-09-15T07:46:16.329Z,96134.66
2018-09-15T07:48:45.388Z,96143.04
2018-09-15T07:51:16.511Z,96141.57
2018-09-15T07:53:49.433Z,96149.42
2018-09-15T07:56:22.204Z,96151.73
2018-09-15T07:58:52.214Z,96151.55
2018-09-15T08:01:22.329Z,96147.68
2018-09-15T08:03:51.346Z,96147.83
2018-09-15T08:06:23.705Z,96146.42
2018-09-15T08:08:53.732Z,96144.18
2018-09-15T08:11:23.887Z,96142.08
2018-09-15T08:19:08.884Z,96139.97
2018-09-15T08:24:17.227Z,96131.23
2018-09-15T08:29:21.974Z,96145.55
2018-09-15T08:31:51.038Z,96150.63
2018-09-15T08:34:20.122Z,96150.96
2018-09-15T08:39:25.927Z,96151.84
2018-09-15T08:42:05.514Z,96157.91
2018-09-15T08:44:34.562Z,96159.06
2018-09-15T08:47:05.610Z,96157.92
2018-09-15T08:52:10.471Z,96168.39
2018-09-15T08:54:39.546Z,96170.06
2018-09-15T08:57:09.588Z,96178.77
2018-09-15T09:02:18.016Z,96171.61
2018-09-15T09:07:22.884Z,96170.44
2018-09-15T09:09:51.962Z,96175.89
2018-09-15T09:15:00.199Z,96181.08
2018-09-15T09:20:05.179Z,96175.47
2018-09-15T09:22:34.145Z,96172.11
2018-09-15T09:25:03.202Z,96164.84
2018-09-15T09:30:10.026Z,96166.95
2018-09-15T09:32:41.106Z,96168.05
2018-09-15T09:35:11.095Z,96166.98
2018-09-15T09:42:52.169Z,96180.69
2018-09-15T09:47:56.999Z,96185.61
2018-09-15T09:50:26.046Z,96185.95
2018-09-15T09:52:55.100Z,96185.08
2018-09-15T09:55:26.101Z,96188.80
2018-09-15T10:00:30.974Z,96183.59
2018-09-15T10:03:00.966Z,96189.20
2018-09-15T10:08:05.879Z,96184.51
2018-09-15T10:10:34.923Z,96179.75
2018-09-15T10:13:05.932Z,96181.87
2018-09-15T10:15:34.997Z,96183.37
2018-09-15T10:18:07.339Z,96179.73
2018-09-15T10:23:12.245Z,96167.85
2018-09-15T10:25:41.303Z,96164.68
2018-09-15T10:28:10.352Z,96162.61
2018-09-15T10:30:39.406Z,96159.75
2018-09-15T10:33:11.957Z,96154.11
2018-09-15T10:35:41.018Z,96151.63
2018-09-15T10:38:10.077Z,96159.30
2018-09-15T10:40:39.147Z,96162.58
2018-09-15T10:43:09.222Z,96165.98
2018-09-15T10:45:40.161Z,96168.13
2018-09-15T10:48:11.166Z,96167.25
2018-09-15T10:50:40.350Z,96175.95
2018-09-15T10:53:09.394Z,96177.15
2018-09-15T10:55:38.440Z,96181.67
2018-09-15T10:58:07.538Z,96180.66
2018-09-15T11:00:36.617Z,96177.30
2018-09-15T11:03:09.046Z,96178.86
2018-09-15T11:05:38.077Z,96183.21
2018-09-15T11:08:08.078Z,96181.53
2018-09-15T11:10:44.724Z,96181.57
2018-09-15T11:13:15.791Z,96178.49
2018-09-15T11:20:56.420Z,96174.92
2018-09-15T11:23:26.437Z,96167.41
2018-09-15T11:25:55.502Z,96171.91
2018-09-15T11:28:24.558Z,96175.08
2018-09-15T11:33:30.374Z,96167.62
2018-09-15T11:36:00.390Z,96171.25
2018-09-15T11:41:05.325Z,96168.05
2018-09-15T11:43:41.857Z,96168.36
2018-09-15T11:46:14.405Z,96169.27
2018-09-15T11:48:44.416Z,96167.95
2018-09-15T11:53:49.390Z,96166.53
2018-09-15T11:56:18.378Z,96164.72
2018-09-15T11:58:47.428Z,96161.40
2018-09-15T12:03:52.282Z,96158.34
2018-09-15T12:06:22.333Z,96156.47
2018-09-15T12:08:52.360Z,96149.63
2018-09-15T12:13:57.246Z,96153.67
2018-09-15T12:16:27.251Z,96148.62
2018-09-15T12:18:59.519Z,96145.61
2018-09-15T12:21:28.629Z,96150.27
2018-09-15T12:23:57.617Z,96148.41
2018-09-15T12:29:03.911Z,96145.27
2018-09-15T12:31:32.986Z,96150.83
2018-09-15T12:34:02.041Z,96148.57
2018-09-15T12:39:14.441Z,96143.61
2018-09-15T12:41:44.427Z,96140.02
2018-09-15T12:46:50.312Z,96126.41
2018-09-15T12:49:20.306Z,96127.50
2018-09-15T12:54:25.200Z,96131.00
2018-09-15T12:56:54.268Z,96126.77
2018-09-15T12:59:26.969Z,96122.64
2018-09-15T13:02:04.562Z,96123.89
2018-09-15T13:04:34.561Z,96120.48
2018-09-15T13:07:06.835Z,96125.55
2018-09-15T13:09:36.893Z,96128.09
2018-09-15T13:12:07.016Z,96127.50
2018-09-15T13:14:37.958Z,96126.33
2018-09-15T13:17:07.010Z,96126.47
2018-09-15T13:19:38.075Z,96123.92
2018-09-15T13:22:07.129Z,96128.03
2018-09-15T13:24:37.438Z,96130.56
2018-09-15T13:27:06.485Z,96126.70
2018-09-15T13:29:39.944Z,96131.73
2018-09-15T13:32:08.974Z,96129.27
2018-09-15T13:37:13.876Z,96122.55
2018-09-15T13:39:42.938Z,96129.41
2018-09-15T13:44:47.850Z,96126.30
2018-09-15T13:49:07.544Z,96126.54
2018-09-15T13:51:36.672Z,96126.95
2018-09-15T13:54:11.030Z,96121.23
2018-09-15T13:59:15.820Z,96128.84
2018-09-15T14:01:44.885Z,96131.61
2018-09-15T14:06:49.775Z,96132.72
2018-09-15T14:09:18.837Z,96129.47
2018-09-15T14:14:23.725Z,96123.30
2018-09-15T14:16:52.915Z,96123.81
2018-09-15T14:19:22.926Z,96122.38
2018-09-15T14:24:27.798Z,96122.78
2018-09-15T14:26:59.025Z,96124.38
2018-09-15T14:29:28.072Z,96119.94
2018-09-15T14:34:33.928Z,96120.86
2018-09-15T14:42:14.906Z,96111.14
2018-09-15T14:44:43.966Z,96109.13
2018-09-15T14:47:14.019Z,96112.45
2018-09-15T14:49:43.081Z,96109.13
2018-09-15T14:52:15.423Z,96112.61
2018-09-15T14:54:48.079Z,96109.72
2018-09-15T14:57:25.157Z,96107.00
2018-09-15T14:59:55.177Z,96094.78
2018-09-15T15:02:24.226Z,96099.22
2018-09-15T15:10:04.801Z,96102.60
2018-09-15T15:12:34.783Z,96107.63
2018-09-15T15:17:39.672Z,96105.52
2018-09-15T15:22:44.431Z,96101.03
2018-09-15T15:25:13.496Z,96098.77
2018-09-15T15:27:42.707Z,96101.73
2018-09-15T15:32:47.577Z,96101.52
2018-09-15T15:35:17.584Z,96102.02
2018-09-15T15:37:48.639Z,96100.94
2018-09-15T15:40:17.594Z,96101.84
2018-09-15T15:45:22.480Z,96095.70
2018-09-15T15:47:52.488Z,96093.18
2018-09-15T15:50:21.572Z,96095.62
2018-09-15T15:55:28.487Z,96100.59
2018-09-15T15:57:58.424Z,96098.87
2018-09-15T16:00:28.418Z,96099.63
2018-09-15T16:05:33.309Z,96100.94
2018-09-15T16:08:02.364Z,96103.93
2018-09-15T16:13:07.240Z,96110.93
2018-09-15T16:15:36.284Z,96109.53
2018-09-15T16:20:41.109Z,96117.25
2018-09-15T16:23:10.262Z,96120.27
2018-09-15T16:25:39.388Z,96121.80
2018-09-15T16:28:09.298Z,96119.17
2018-09-15T16:33:15.173Z,96122.84
2018-09-15T16:35:49.473Z,96120.90
2018-09-15T16:38:20.783Z,96122.91
2018-09-15T16:40:50.749Z,96129.08
2018-09-15T16:43:24.720Z,96127.83
2018-09-15T16:45:55.699Z,96122.75
2018-09-15T16:48:24.788Z,96122.83
2018-09-15T16:50:53.831Z,96124.98
2018-09-15T16:53:22.896Z,96125.36
2018-09-15T16:55:51.949Z,96126.21
2018-09-15T16:58:21.005Z,96126.84
2018-09-15T17:00:52.987Z,96132.38
2018-09-15T17:03:25.905Z,96132.80
2018-09-15T17:05:54.873Z,96134.53
2018-09-15T17:08:23.933Z,96135.14
2018-09-15T17:10:52.995Z,96133.08
2018-09-15T17:13:22.961Z,96142.05
2018-09-15T17:15:53.020Z,96143.84
2018-09-15T17:18:24.026Z,96144.81
2018-09-15T17:20:57.932Z,96153.00
2018-09-15T17:23:28.981Z,96153.99
2018-09-15T17:26:06.677Z,96156.30
2018-09-15T17:28:35.734Z,96162.58
2018-09-15T17:31:04.827Z,96164.27
2018-09-15T17:33:33.844Z,96167.86
2018-09-15T17:36:02.946Z,96169.97
2018-09-15T17:38:31.991Z,96176.72
2018-09-15T17:41:01.989Z,96177.66
2018-09-15T17:43:34.868Z,96178.14
2018-09-15T17:48:39.669Z,96182.85
2018-09-15T17:51:08.725Z,96189.00
2018-09-15T17:53:38.680Z,96195.34
2018-09-15T17:58:45.057Z,96202.49
2018-09-15T18:03:50.414Z,96212.63
2018-09-15T18:06:21.458Z,96217.53
2018-09-15T18:08:50.522Z,96225.06
2018-09-15T18:11:19.564Z,96223.61
2018-09-15T18:13:48.641Z,96224.62
2018-09-15T18:16:17.689Z,96222.38
2018-09-15T18:18:47.786Z,96227.55
2018-09-15T18:23:52.629Z,96246.88
2018-09-15T18:26:22.621Z,96252.22
2018-09-15T18:34:03.254Z,96256.39
2018-09-15T18:36:33.423Z,96261.12
2018-09-15T18:39:02.362Z,96258.23
2018-09-15T18:41:33.385Z,96257.48
2018-09-15T18:49:14.110Z,96254.76
2018-09-15T18:51:43.161Z,96256.02
2018-09-15T18:54:12.205Z,96249.28
2018-09-15T18:56:42.220Z,96243.78
2018-09-15T18:59:11.273Z,96249.22
2018-09-15T19:01:40.329Z,96253.38
2018-09-15T19:06:47.646Z,96254.55
2018-09-15T19:09:16.704Z,96254.91
2018-09-15T19:11:45.897Z,96261.73
2018-09-15T19:14:14.975Z,96268.33
2018-09-15T19:16:43.974Z,96270.31
2018-09-15T19:19:13.045Z,96268.49
2018-09-15T19:21:42.096Z,96274.45
2018-09-15T19:24:11.199Z,96274.25
2018-09-15T19:26:40.291Z,96280.87
2018-09-15T19:29:09.283Z,96283.48
2018-09-15T19:31:38.340Z,96286.43
2018-09-15T19:34:07.393Z,96284.06
2018-09-15T19:36:36.447Z,96288.30
2018-09-15T19:39:05.525Z,96288.16
2018-09-15T19:41:35.532Z,96289.32
2018-09-15T19:46:42.741Z,96287.44
2018-09-15T19:51:47.694Z,96286.45
2018-09-15T19:56:53.475Z,96276.19
2018-09-15T19:59:23.522Z,96274.92
2018-09-15T20:01:52.609Z,96275.70
2018-09-15T20:04:22.617Z,96278.09
2018-09-15T20:06:51.705Z,96280.62
2018-09-15T20:11:56.566Z,96282.50
2018-09-15T20:14:25.629Z,96283.72
2018-09-15T20:16:53.886Z,96285.61
2018-09-15T20:19:22.158Z,96283.17
2018-09-15T20:27:02.773Z,96287.52
2018-09-15T20:29:32.745Z,96283.50
2018-09-15T20:32:01.811Z,96284.08
2018-09-15T20:34:32.802Z,96281.02
2018-09-15T20:37:01.888Z,96285.06
2018-09-15T20:42:06.704Z,96285.41
2018-09-15T20:44:35.909Z,96288.05
2018-09-15T20:47:04.969Z,96284.26
2018-09-15T20:49:34.965Z,96287.94
2018-09-15T20:52:05.009Z,96282.98
2018-09-15T20:54:36.025Z,96283.66
2018-09-15T20:59:40.813Z,96276.06
2018-09-15T21:02:09.861Z,96276.45
2018-09-15T21:04:38.909Z,96277.34
2018-09-15T21:09:43.754Z,96278.75
2018-09-15T21:14:48.600Z,96283.64
2018-09-15T21:17:17.685Z,96286.42
2018-09-15T21:19:46.741Z,96292.40
2018-09-15T21:22:16.821Z,96292.21
2018-09-15T21:27:22.631Z,96293.25
2018-09-15T21:29:54.831Z,96291.12
2018-09-15T21:32:23.895Z,96297.87
2018-09-15T21:34:52.942Z,96292.16
2018-09-15T21:39:57.714Z,96290.35
2018-09-15T21:42:26.879Z,96285.73
2018-09-15T21:44:57.937Z,96283.77
2018-09-15T21:47:27.965Z,96284.42
2018-09-15T21:49:57.025Z,96287.33
2018-09-15T21:52:27.170Z,96290.30
2018-09-15T21:54:56.225Z,96288.02
2018-09-15T21:57:25.279Z,96295.80
2018-09-15T21:59:54.353Z,96291.48
2018-09-15T22:02:23.414Z,96294.91
2018-09-15T22:07:29.458Z,96302.62
2018-09-15T22:12:34.329Z,96300.88
2018-09-15T22:17:39.081Z,96295.05
2018-09-15T22:20:08.141Z,96300.09
2018-09-15T22:25:13.926Z,96297.11
2018-09-15T22:27:43.949Z,96299.44
2018-09-15T22:30:16.011Z,96310.54
2018-09-15T22:32:45.972Z,96308.06
2018-09-15T22:35:15.033Z,96313.13
2018-09-15T22:37:45.087Z,96307.05
2018-09-15T22:40:15.060Z,96305.88
2018-09-15T22:42:44.120Z,96309.06
2018-09-15T22:45:14.291Z,96307.20
2018-09-15T22:47:43.336Z,96304.46
2018-09-15T22:50:13.416Z,96306.33
2018-09-15T22:52:42.476Z,96306.70
2018-09-15T22:55:11.533Z,96308.90
2018-09-15T23:00:17.290Z,96306.48
2018-09-15T23:07:57.802Z,96305.41
2018-09-15T23:13:02.597Z,96303.49
2018-09-15T23:15:31.667Z,96304.38
2018-09-15T23:18:00.841Z,96298.23
2018-09-15T23:23:05.601Z,96299.48
2018-09-15T23:25:34.666Z,96297.24
2018-09-15T23:28:05.097Z,96289.98
2018-09-15T23:30:34.202Z,96288.74
2018-09-15T23:33:03.265Z,96288.61
2018-09-15T23:35:32.321Z,96286.24
2018-09-15T23:38:01.390Z,96287.69
2018-09-15T23:40:30.443Z,96281.55
2018-09-15T23:42:59.489Z,96279.27
2018-09-15T23:45:29.517Z,96286.86
2018-09-15T23:47:59.540Z,96284.30
2018-09-15T23:50:28.605Z,96287.64
2018-09-15T23:52:57.664Z,96281.86
2018-09-15T23:55:26.740Z,96280.26
2018-09-15T23:57:55.793Z,96272.53
